Biscayne National Park, FL

1:52 PM EDT on October 20, 2014 (GMT -0400)
Bali at The Isles at Oasis | Change Station
CLOSE
Current Station
Personal Weather Station
Location: Homestead, FL
Elevation: 10 ft
Nearby Weather Stations

Elev 10 ft 25.47 °N, 80.42 °W | Updated 19 seconds ago

Overcast
Overcast
81.9 °F
Feels Like 87 °F
N
1.0
Wind Variable Wind from SE
Gusts 5.0 mph

Today
High -- | Low -- °F
--% Chance of Precip.
Yesterday
High -- | Low -- °F
Precip. -- in
7:22 AM 6:49 PM
Waning Crescent, 10% visible
Pressure 30.00 in
Visibility 10.0 miles
Clouds Mostly Cloudy 3500 ft
Heat Index 87 °F
Dew Point 72 °F
Humidity 72%
Rainfall 0.00 in
Snow Depth Not available.
UV 6 out of 12
Pollen 3.60 out of 12
Ozone Good
PM2.5 Moderate
Flu Activity Local Activity
METAR KHST 201658Z AUTO 08010KT 10SM BKN035 28/20 A2999 RMK AO2 SLP159 T02790203

More Conditions Fewer Conditions

Pressure 30.00 in
Visibility 10.0 miles
Clouds Mostly Cloudy 3500 ft
Heat Index 87 °F
Dew Point 72 °F
Humidity 72%
Rainfall 0.00 in
Snow Depth Not available.
UV 6 out of 12
Pollen 3.60 out of 12
Ozone Good
PM2.5 Moderate
Flu Activity Local Activity
METAR KHST 201658Z AUTO 08010KT 10SM BKN035 28/20 A2999 RMK AO2 SLP159 T02790203

More Conditions Fewer Conditions

10-Day Weather Forecast

Almanac

Astronomy

Oct. 20, 2014 Rise Set
Actual Time 7:22 AM EDT 6:49 PM EDT
Civil Twilight 6:59 AM EDT 7:13 PM EDT
Nautical Twilight 6:32 AM EDT 7:39 PM EDT
Astronomical Twilight 6:06 AM EDT 8:06 PM EDT
Moon 4:28 AM EDT 4:55 PM EDT
Length of Visible Light 12h 13m
Length of Day
11h 26m
Waning Crescent, 10% of the Moon is Illuminated
Today
Waning Crescent
Oct 23
New
Oct 30
First Quarter
Nov 6
Full
Nov 14
Last Quarter

Today's Extremes

State Highs State Lows

Community

WunderPhotos

Upload Photos

1,763,446 photos uploaded!

WunderBlogs® & News

Nearby

Air Quality

  Air Quality AQ Index Pollutant
Yesterday Good
OZONE
Yesterday Good
PM2.5
Current Moderate
PM2.5
Current Good
OZONE
Monday Good
OZONE
Monday Good
PM2.5
Tuesday Good
OZONE
Tuesday Good
PM2.5

Snow Depth

Station Depth Elevation
No new snow has been reported.

Earthquake Activity

City Distance Mag. Time & Date
No recent earthquake activity has been reported nearby.
Minimum magnitude displayed is 2.5.

Coastal Water Temperatures

Place Temperature
Virginia Key, FL 82.0 °F

Nearby Weather Stations